DNKN/KAN METAR and TAF weather

Enter ICAO airport designator
Station Type Date Time Source
DNKN METAR 2021/04/13 07:00 UTC NOAA

DNKN 130700Z 35004KT 8000 NSC 26/01 Q1016 NOSIG


Station Type Date Time Source
DNKN Decoded METAR 2021/04/13 07:00 UTC NOAA

Kano, Nigeria (DNKN) 12-03N 008-32E 481M
Apr 13, 2021 - 03:00 AM EDT / 2021.04.13 0700 UTC
Wind: from the N (350 degrees) at 5 MPH (4 KT):0
Visibility: 4 mile(s):0
Temperature: 78 F (26 C)
Dew Point: 33 F (1 C)
Relative Humidity: 19%
Pressure (altimeter): 30.00 in. Hg (1016 hPa)
ob: DNKN 130700Z 35004KT 8000 NSC 26/01 Q1016 NOSIG
cycle: 7

Station Type Date Time Source
DNKN TAF 2021/04/13 06:21 UTC NOAA

TAF DNKN 130500Z 1306/1412 29004KT CAVOK
TEMPO 1311/1315 09007KT

Example: see airport list